createdAt,value
2022-12-24T00:05:01.296Z,40.68
2022-12-24T00:15:04.369Z,40.79
2022-12-24T00:25:06.305Z,40.47
2022-12-24T00:35:07.996Z,40.79
2022-12-24T00:45:10.152Z,40.72
2022-12-24T00:55:11.682Z,40.58
2022-12-24T01:05:13.314Z,40.72
2022-12-24T01:15:14.985Z,40.60
2022-12-24T01:25:16.444Z,40.70
2022-12-24T01:35:17.865Z,40.71
2022-12-24T01:45:37.422Z,40.71
2022-12-24T01:55:38.897Z,40.81
2022-12-24T02:05:53.580Z,40.79
2022-12-24T02:16:17.025Z,40.83
2022-12-24T02:26:45.984Z,40.77
2022-12-24T02:36:49.839Z,40.72
2022-12-24T02:46:51.376Z,40.75
2022-12-24T02:57:17.170Z,40.98
2022-12-24T03:07:21.115Z,41.02
2022-12-24T03:17:22.623Z,40.99
2022-12-24T03:27:26.061Z,40.95
2022-12-24T03:37:27.593Z,40.96
2022-12-24T03:47:29.002Z,40.97
2022-12-24T03:57:30.422Z,41.01
2022-12-24T04:07:32.776Z,40.94
2022-12-24T04:17:34.169Z,40.92
2022-12-24T04:27:35.598Z,40.93
2022-12-24T04:37:37.017Z,40.94
2022-12-24T04:47:38.437Z,40.89
2022-12-24T04:57:39.828Z,41.06
2022-12-24T05:07:41.234Z,41.03
2022-12-24T05:17:42.761Z,41.00
2022-12-24T05:27:50.655Z,40.78
2022-12-24T05:37:52.548Z,40.49
2022-12-24T05:47:53.942Z,40.49
2022-12-24T05:57:55.344Z,40.37
2022-12-24T06:07:56.726Z,40.20
2022-12-24T06:17:58.102Z,40.07
2022-12-24T06:27:59.499Z,39.95
2022-12-24T06:38:00.879Z,40.05
2022-12-24T06:48:02.388Z,40.22
2022-12-24T06:58:04.102Z,40.47
2022-12-24T07:08:05.487Z,40.52
2022-12-24T07:18:06.891Z,40.27
2022-12-24T07:28:08.432Z,40.12
2022-12-24T07:38:09.811Z,40.15
2022-12-24T07:48:11.351Z,40.27
2022-12-24T07:58:12.822Z,40.43
2022-12-24T08:08:14.255Z,40.37
2022-12-24T08:18:15.787Z,40.46
2022-12-24T08:28:19.956Z,40.50
2022-12-24T08:38:21.540Z,40.32
2022-12-24T08:48:23.072Z,40.32
2022-12-24T08:58:24.477Z,40.51
2022-12-24T09:08:25.865Z,40.49
2022-12-24T09:18:27.470Z,40.41
2022-12-24T09:28:29.007Z,40.52
2022-12-24T09:38:31.149Z,40.54
2022-12-24T09:48:34.418Z,40.36
2022-12-24T09:59:00.222Z,40.45
2022-12-24T10:09:16.582Z,40.50
2022-12-24T10:19:20.027Z,40.41
2022-12-24T10:29:27.582Z,40.49
2022-12-24T10:39:28.956Z,40.54
2022-12-24T10:49:34.027Z,40.48
2022-12-24T10:59:54.564Z,40.52
2022-12-24T11:10:06.238Z,40.53
2022-12-24T11:20:28.182Z,40.42
2022-12-24T11:30:33.156Z,40.52
2022-12-24T11:40:42.459Z,40.49
2022-12-24T11:50:43.865Z,40.41
2022-12-24T12:00:45.427Z,40.16
2022-12-24T12:10:46.864Z,40.14
2022-12-24T12:20:50.726Z,40.05
2022-12-24T12:31:02.457Z,40.27
2022-12-24T12:41:29.093Z,40.13
2022-12-24T12:51:55.228Z,40.24
2022-12-24T13:02:21.638Z,40.13
2022-12-24T13:12:32.689Z,40.04
2022-12-24T13:22:34.231Z,40.12
2022-12-24T13:32:48.267Z,40.11
2022-12-24T13:42:58.281Z,40.06
2022-12-24T13:52:59.669Z,40.23
2022-12-24T14:03:13.234Z,40.15
2022-12-24T14:13:39.588Z,40.20
2022-12-24T14:23:58.274Z,40.18
2022-12-24T14:34:08.741Z,40.04
2022-12-24T14:44:44.308Z,40.08
2022-12-24T14:54:45.746Z,40.29
2022-12-24T15:05:14.161Z,40.33
2022-12-24T15:15:16.545Z,40.32
2022-12-24T15:25:29.265Z,40.46
2022-12-24T15:35:46.289Z,40.46
2022-12-24T15:45:48.664Z,40.53
2022-12-24T15:56:03.661Z,40.59
2022-12-24T16:06:09.054Z,40.62
2022-12-24T16:16:15.072Z,40.52
2022-12-24T16:26:16.566Z,40.59
2022-12-24T16:36:18.093Z,40.63
2022-12-24T16:46:19.554Z,40.70
2022-12-24T16:56:22.067Z,40.70
2022-12-24T17:06:23.431Z,40.63
2022-12-24T17:16:24.863Z,40.83
2022-12-24T17:26:26.334Z,41.04
2022-12-24T17:36:27.863Z,40.95
2022-12-24T17:46:29.307Z,41.08
2022-12-24T17:56:30.781Z,41.18
2022-12-24T18:06:32.192Z,41.17
2022-12-24T18:16:35.562Z,41.10
2022-12-24T18:26:37.199Z,41.19
2022-12-24T18:36:38.790Z,41.30
2022-12-24T18:46:40.382Z,41.26
2022-12-24T18:56:41.837Z,41.44
2022-12-24T19:06:48.970Z,41.35
2022-12-24T19:16:54.060Z,41.52
2022-12-24T19:26:55.472Z,41.50
2022-12-24T19:36:57.026Z,41.46
2022-12-24T19:46:58.409Z,41.40
2022-12-24T19:56:59.775Z,41.39
2022-12-24T20:07:01.188Z,41.54
2022-12-24T20:17:02.654Z,41.58
2022-12-24T20:27:05.399Z,41.48
2022-12-24T20:37:06.986Z,41.48
2022-12-24T20:47:08.527Z,41.58
2022-12-24T20:57:10.077Z,41.56
2022-12-24T21:07:14.187Z,41.56
2022-12-24T21:17:16.307Z,41.76
2022-12-24T21:27:17.907Z,41.67
2022-12-24T21:37:19.811Z,41.70
2022-12-24T21:47:21.235Z,41.74
2022-12-24T21:57:55.121Z,41.79
2022-12-24T22:08:15.164Z,41.72
2022-12-24T22:18:17.894Z,41.85
2022-12-24T22:28:20.024Z,42.00
2022-12-24T22:38:21.548Z,41.76
2022-12-24T22:48:22.924Z,41.85
2022-12-24T22:58:24.362Z,41.84
2022-12-24T23:08:25.807Z,41.82
2022-12-24T23:18:27.335Z,41.95
2022-12-24T23:28:28.869Z,42.00
2022-12-24T23:38:30.902Z,42.04
2022-12-24T23:48:32.439Z,41.98
2022-12-24T23:58:34.007Z,42.14
